TimeMST,TemperatureF,Dew PointF,Humidity,Sea Level PressureIn,VisibilityMPH,Wind Direction,Wind SpeedMPH,Gust SpeedMPH,PrecipitationIn,Events,Conditions,WindDirDegrees,DateUTC
12:53 AM,43.0,30.0,60,30.24,10.0,South,5.8,-,N/A,,Clear,190,2012-11-04 06:53:00
1:53 AM,42.1,28.9,60,30.24,10.0,South,8.1,-,N/A,,Clear,180,2012-11-04 07:53:00
1:53 AM,42.1,28.9,60,30.24,10.0,South,8.1,-,N/A,,Clear,180,2012-11-04 08:53:00
2:53 AM,42.1,28.0,58,30.25,10.0,South,5.8,-,N/A,,Clear,180,2012-11-04 09:53:00
3:53 AM,41.0,28.0,60,30.24,10.0,South,8.1,-,N/A,,Clear,180,2012-11-04 10:53:00
5:53 AM,41.0,28.0,60,30.28,10.0,South,8.1,-,N/A,,Clear,170,2012-11-04 12:53:00
6:53 AM,39.9,28.0,63,30.28,10.0,South,10.4,-,N/A,,Clear,170,2012-11-04 13:53:00
7:53 AM,42.1,28.0,58,30.31,10.0,South,9.2,-,N/A,,Clear,180,2012-11-04 14:53:00
8:53 AM,46.0,28.9,51,30.35,10.0,South,4.6,-,N/A,,Clear,170,2012-11-04 15:53:00
9:53 AM,52.0,28.9,41,30.34,10.0,SSW,3.5,-,N/A,,Clear,200,2012-11-04 16:53:00
10:53 AM,55.9,28.9,36,30.34,10.0,Calm,Calm,-,N/A,,Overcast,0,2012-11-04 17:53:00
11:53 AM,57.0,30.9,37,30.34,10.0,Calm,Calm,-,N/A,,Clear,0,2012-11-04 18:53:00
12:53 PM,61.0,32.0,34,30.32,10.0,Calm,Calm,-,N/A,,Scattered Clouds,0,2012-11-04 19:53:00
1:53 PM,60.1,32.0,35,30.32,10.0,Variable,3.5,-,N/A,,Overcast,0,2012-11-04 20:53:00
2:53 PM,60.1,30.9,33,30.32,10.0,WNW,5.8,-,N/A,,Overcast,300,2012-11-04 21:53:00
3:53 PM,60.1,37.9,44,30.33,10.0,NW,5.8,-,N/A,,Overcast,320,2012-11-04 22:53:00
4:53 PM,55.0,39.0,55,30.33,10.0,WNW,3.5,-,N/A,,Partly Cloudy,290,2012-11-04 23:53:00
5:53 PM,51.1,37.9,61,30.35,10.0,Calm,Calm,-,N/A,,Clear,0,2012-11-05 00:53:00
6:53 PM,50.0,39.0,66,30.37,10.0,Calm,Calm,-,N/A,,Clear,0,2012-11-05 01:53:00
7:53 PM,46.9,37.9,71,30.37,10.0,SSE,4.6,-,N/A,,Clear,160,2012-11-05 02:53:00
8:53 PM,46.0,35.1,66,30.38,10.0,South,5.8,-,N/A,,Clear,180,2012-11-05 03:53:00
9:53 PM,45.0,34.0,65,30.38,10.0,South,6.9,-,N/A,,Clear,170,2012-11-05 04:53:00
10:53 PM,45.0,33.1,63,30.37,10.0,South,5.8,-,N/A,,Clear,190,2012-11-05 05:53:00